sensor_id;sensor_type;location;lat;lon;timestamp;P1;durP1;ratioP1;P2;durP2;ratioP2
10122;SDS011;5101;49.038;8.710;2023-12-14T00:01:43;5.75;;;2.88;;
10122;SDS011;5101;49.038;8.710;2023-12-14T00:04:11;6.05;;;3.50;;
10122;SDS011;5101;49.038;8.710;2023-12-14T00:06:36;4.13;;;3.55;;
10122;SDS011;5101;49.038;8.710;2023-12-14T00:09:02;5.03;;;3.42;;
10122;SDS011;5101;49.038;8.710;2023-12-14T00:11:27;5.00;;;3.13;;
10122;SDS011;5101;49.038;8.710;2023-12-14T00:13:53;7.88;;;3.40;;
10122;SDS011;5101;49.038;8.710;2023-12-14T00:16:18;6.68;;;2.92;;
10122;SDS011;5101;49.038;8.710;2023-12-14T00:18:44;4.43;;;3.22;;
10122;SDS011;5101;49.038;8.710;2023-12-14T00:21:09;4.63;;;3.10;;
10122;SDS011;5101;49.038;8.710;2023-12-14T00:23:35;3.72;;;3.40;;
10122;SDS011;5101;49.038;8.710;2023-12-14T00:26:01;6.35;;;3.30;;
10122;SDS011;5101;49.038;8.710;2023-12-14T00:28:27;7.68;;;3.40;;
10122;SDS011;5101;49.038;8.710;2023-12-14T00:30:52;6.57;;;3.60;;
10122;SDS011;5101;49.038;8.710;2023-12-14T00:33:18;7.30;;;4.43;;
10122;SDS011;5101;49.038;8.710;2023-12-14T00:35:43;3.70;;;3.30;;
10122;SDS011;5101;49.038;8.710;2023-12-14T00:38:09;5.05;;;4.00;;
10122;SDS011;5101;49.038;8.710;2023-12-14T00:40:34;6.70;;;4.00;;
10122;SDS011;5101;49.038;8.710;2023-12-14T00:43:00;7.70;;;4.28;;
10122;SDS011;5101;49.038;8.710;2023-12-14T00:45:26;11.23;;;4.40;;
10122;SDS011;5101;49.038;8.710;2023-12-14T00:47:51;7.22;;;4.65;;
10122;SDS011;5101;49.038;8.710;2023-12-14T00:50:17;4.65;;;3.70;;
10122;SDS011;5101;49.038;8.710;2023-12-14T00:52:42;6.28;;;3.90;;
10122;SDS011;5101;49.038;8.710;2023-12-14T00:55:08;5.35;;;3.83;;
10122;SDS011;5101;49.038;8.710;2023-12-14T00:57:33;4.03;;;3.63;;
10122;SDS011;5101;49.038;8.710;2023-12-14T00:59:58;5.07;;;3.63;;
10122;SDS011;5101;49.038;8.710;2023-12-14T01:02:24;4.80;;;3.72;;
10122;SDS011;5101;49.038;8.710;2023-12-14T01:04:49;4.82;;;3.47;;
10122;SDS011;5101;49.038;8.710;2023-12-14T01:07:15;4.65;;;3.88;;
10122;SDS011;5101;49.038;8.710;2023-12-14T01:09:40;6.88;;;4.00;;
10122;SDS011;5101;49.038;8.710;2023-12-14T01:12:06;4.30;;;3.70;;
10122;SDS011;5101;49.038;8.710;2023-12-14T01:14:31;8.38;;;4.45;;
10122;SDS011;5101;49.038;8.710;2023-12-14T01:16:57;7.95;;;4.55;;
10122;SDS011;5101;49.038;8.710;2023-12-14T01:19:22;12.57;;;5.25;;
10122;SDS011;5101;49.038;8.710;2023-12-14T01:21:50;7.18;;;4.47;;
10122;SDS011;5101;49.038;8.710;2023-12-14T01:24:15;7.10;;;4.80;;
10122;SDS011;5101;49.038;8.710;2023-12-14T01:26:41;9.50;;;5.05;;
10122;SDS011;5101;49.038;8.710;2023-12-14T01:29:06;8.18;;;4.68;;
10122;SDS011;5101;49.038;8.710;2023-12-14T01:31:32;9.43;;;4.60;;
10122;SDS011;5101;49.038;8.710;2023-12-14T01:33:57;6.50;;;4.88;;
10122;SDS011;5101;49.038;8.710;2023-12-14T01:36:23;5.72;;;3.53;;
10122;SDS011;5101;49.038;8.710;2023-12-14T01:38:50;5.55;;;3.63;;
10122;SDS011;5101;49.038;8.710;2023-12-14T01:41:16;5.28;;;3.90;;
10122;SDS011;5101;49.038;8.710;2023-12-14T01:43:42;6.82;;;3.75;;
10122;SDS011;5101;49.038;8.710;2023-12-14T01:46:08;7.90;;;4.22;;
10122;SDS011;5101;49.038;8.710;2023-12-14T01:48:34;10.45;;;4.45;;
10122;SDS011;5101;49.038;8.710;2023-12-14T01:50:59;5.00;;;3.83;;
10122;SDS011;5101;49.038;8.710;2023-12-14T01:53:25;6.80;;;4.00;;
10122;SDS011;5101;49.038;8.710;2023-12-14T01:55:51;5.32;;;4.28;;
10122;SDS011;5101;49.038;8.710;2023-12-14T01:58:16;8.25;;;4.20;;
10122;SDS011;5101;49.038;8.710;2023-12-14T02:03:33;5.10;;;4.05;;
10122;SDS011;5101;49.038;8.710;2023-12-14T02:05:58;4.13;;;3.72;;
10122;SDS011;5101;49.038;8.710;2023-12-14T02:08:25;6.45;;;4.15;;
10122;SDS011;5101;49.038;8.710;2023-12-14T02:10:52;7.35;;;4.93;;
10122;SDS011;5101;49.038;8.710;2023-12-14T02:13:17;5.63;;;4.50;;
10122;SDS011;5101;49.038;8.710;2023-12-14T02:15:43;7.57;;;5.60;;
10122;SDS011;5101;49.038;8.710;2023-12-14T02:18:08;8.45;;;5.30;;
10122;SDS011;5101;49.038;8.710;2023-12-14T02:20:34;9.20;;;4.80;;
10122;SDS011;5101;49.038;8.710;2023-12-14T02:22:59;7.10;;;4.57;;
10122;SDS011;5101;49.038;8.710;2023-12-14T02:25:26;8.68;;;5.38;;
10122;SDS011;5101;49.038;8.710;2023-12-14T02:27:52;6.22;;;5.50;;
10122;SDS011;5101;49.038;8.710;2023-12-14T02:30:18;11.23;;;5.32;;
10122;SDS011;5101;49.038;8.710;2023-12-14T02:32:43;9.25;;;5.65;;
10122;SDS011;5101;49.038;8.710;2023-12-14T02:35:09;8.18;;;5.55;;
10122;SDS011;5101;49.038;8.710;2023-12-14T02:37:35;9.43;;;5.60;;
10122;SDS011;5101;49.038;8.710;2023-12-14T02:40:05;6.95;;;5.38;;
10122;SDS011;5101;49.038;8.710;2023-12-14T02:42:31;7.25;;;5.13;;
10122;SDS011;5101;49.038;8.710;2023-12-14T02:44:57;6.55;;;5.43;;
10122;SDS011;5101;49.038;8.710;2023-12-14T02:47:23;6.43;;;5.03;;
10122;SDS011;5101;49.038;8.710;2023-12-14T02:49:49;9.57;;;5.03;;
10122;SDS011;5101;49.038;8.710;2023-12-14T02:52:14;8.73;;;4.82;;
10122;SDS011;5101;49.038;8.710;2023-12-14T02:54:40;11.20;;;5.07;;
10122;SDS011;5101;49.038;8.710;2023-12-14T02:57:05;5.88;;;4.78;;
10122;SDS011;5101;49.038;8.710;2023-12-14T02:59:31;9.25;;;4.78;;
10122;SDS011;5101;49.038;8.710;2023-12-14T03:01:57;10.48;;;5.05;;
10122;SDS011;5101;49.038;8.710;2023-12-14T03:04:22;7.25;;;4.68;;
10122;SDS011;5101;49.038;8.710;2023-12-14T03:06:48;8.57;;;4.60;;
10122;SDS011;5101;49.038;8.710;2023-12-14T03:09:13;7.10;;;4.32;;
10122;SDS011;5101;49.038;8.710;2023-12-14T03:11:39;8.13;;;4.50;;
10122;SDS011;5101;49.038;8.710;2023-12-14T03:14:04;6.53;;;4.20;;
10122;SDS011;5101;49.038;8.710;2023-12-14T03:16:30;4.30;;;3.78;;
10122;SDS011;5101;49.038;8.710;2023-12-14T03:18:55;5.68;;;3.88;;
10122;SDS011;5101;49.038;8.710;2023-12-14T03:21:21;6.22;;;3.70;;
10122;SDS011;5101;49.038;8.710;2023-12-14T03:23:48;5.93;;;4.57;;
10122;SDS011;5101;49.038;8.710;2023-12-14T03:26:17;5.63;;;3.78;;
10122;SDS011;5101;49.038;8.710;2023-12-14T03:28:42;5.57;;;3.80;;
10122;SDS011;5101;49.038;8.710;2023-12-14T03:31:10;5.07;;;4.57;;
10122;SDS011;5101;49.038;8.710;2023-12-14T03:33:36;7.22;;;5.30;;
10122;SDS011;5101;49.038;8.710;2023-12-14T03:36:01;9.05;;;5.20;;
10122;SDS011;5101;49.038;8.710;2023-12-14T03:38:27;6.22;;;5.20;;
10122;SDS011;5101;49.038;8.710;2023-12-14T03:40:53;6.63;;;5.40;;
10122;SDS011;5101;49.038;8.710;2023-12-14T03:43:18;7.53;;;6.53;;
10122;SDS011;5101;49.038;8.710;2023-12-14T03:45:44;9.70;;;6.80;;
10122;SDS011;5101;49.038;8.710;2023-12-14T03:48:10;8.45;;;7.47;;
10122;SDS011;5101;49.038;8.710;2023-12-14T03:50:35;9.13;;;6.90;;
10122;SDS011;5101;49.038;8.710;2023-12-14T03:53:01;11.27;;;7.25;;
10122;SDS011;5101;49.038;8.710;2023-12-14T03:55:26;10.80;;;7.63;;
10122;SDS011;5101;49.038;8.710;2023-12-14T03:57:52;8.45;;;7.38;;
10122;SDS011;5101;49.038;8.710;2023-12-14T04:00:18;11.35;;;7.15;;
10122;SDS011;5101;49.038;8.710;2023-12-14T04:02:44;8.40;;;7.45;;
10122;SDS011;5101;49.038;8.710;2023-12-14T04:05:09;10.35;;;7.22;;
10122;SDS011;5101;49.038;8.710;2023-12-14T04:07:35;9.75;;;7.57;;
10122;SDS011;5101;49.038;8.710;2023-12-14T04:12:34;9.20;;;7.47;;
10122;SDS011;5101;49.038;8.710;2023-12-14T04:15:00;11.50;;;7.45;;
10122;SDS011;5101;49.038;8.710;2023-12-14T04:17:25;10.02;;;8.02;;
10122;SDS011;5101;49.038;8.710;2023-12-14T04:19:51;11.18;;;7.35;;
10122;SDS011;5101;49.038;8.710;2023-12-14T04:22:16;10.15;;;7.90;;
10122;SDS011;5101;49.038;8.710;2023-12-14T04:24:42;10.80;;;8.38;;
10122;SDS011;5101;49.038;8.710;2023-12-14T04:27:07;10.75;;;8.10;;
10122;SDS011;5101;49.038;8.710;2023-12-14T04:29:33;10.25;;;8.40;;
10122;SDS011;5101;49.038;8.710;2023-12-14T04:31:58;12.23;;;8.88;;
10122;SDS011;5101;49.038;8.710;2023-12-14T04:34:24;12.77;;;9.45;;
10122;SDS011;5101;49.038;8.710;2023-12-14T04:36:49;11.52;;;9.02;;
10122;SDS011;5101;49.038;8.710;2023-12-14T04:39:15;13.10;;;9.50;;
10122;SDS011;5101;49.038;8.710;2023-12-14T04:41:41;13.70;;;9.75;;
10122;SDS011;5101;49.038;8.710;2023-12-14T04:44:07;10.00;;;9.00;;
10122;SDS011;5101;49.038;8.710;2023-12-14T04:46:35;11.40;;;9.63;;
10122;SDS011;5101;49.038;8.710;2023-12-14T04:49:00;13.63;;;10.40;;
10122;SDS011;5101;49.038;8.710;2023-12-14T04:51:26;12.68;;;9.50;;
10122;SDS011;5101;49.038;8.710;2023-12-14T04:53:51;12.75;;;9.38;;
10122;SDS011;5101;49.038;8.710;2023-12-14T04:56:17;14.43;;;10.57;;
10122;SDS011;5101;49.038;8.710;2023-12-14T04:58:42;11.70;;;9.55;;
10122;SDS011;5101;49.038;8.710;2023-12-14T05:01:08;14.38;;;10.40;;
10122;SDS011;5101;49.038;8.710;2023-12-14T05:03:34;12.77;;;10.18;;
10122;SDS011;5101;49.038;8.710;2023-12-14T05:06:00;15.57;;;10.52;;
10122;SDS011;5101;49.038;8.710;2023-12-14T05:08:26;17.65;;;11.90;;
10122;SDS011;5101;49.038;8.710;2023-12-14T05:10:51;18.05;;;12.13;;
10122;SDS011;5101;49.038;8.710;2023-12-14T05:13:17;19.85;;;11.75;;
10122;SDS011;5101;49.038;8.710;2023-12-14T05:15:42;17.85;;;11.73;;
10122;SDS011;5101;49.038;8.710;2023-12-14T05:18:08;20.42;;;12.85;;
10122;SDS011;5101;49.038;8.710;2023-12-14T05:20:34;15.68;;;11.20;;
10122;SDS011;5101;49.038;8.710;2023-12-14T05:23:00;15.30;;;11.77;;
10122;SDS011;5101;49.038;8.710;2023-12-14T05:25:26;14.52;;;11.75;;
10122;SDS011;5101;49.038;8.710;2023-12-14T05:27:51;14.00;;;10.40;;
10122;SDS011;5101;49.038;8.710;2023-12-14T05:30:17;15.50;;;11.52;;
10122;SDS011;5101;49.038;8.710;2023-12-14T05:32:43;13.75;;;10.90;;
10122;SDS011;5101;49.038;8.710;2023-12-14T05:35:08;15.18;;;11.52;;
10122;SDS011;5101;49.038;8.710;2023-12-14T05:37:34;15.25;;;10.98;;
10122;SDS011;5101;49.038;8.710;2023-12-14T05:40:00;13.98;;;11.23;;
10122;SDS011;5101;49.038;8.710;2023-12-14T05:42:26;15.43;;;11.07;;
10122;SDS011;5101;49.038;8.710;2023-12-14T05:44:51;14.70;;;10.93;;
10122;SDS011;5101;49.038;8.710;2023-12-14T05:47:17;13.48;;;10.70;;
10122;SDS011;5101;49.038;8.710;2023-12-14T05:49:43;13.27;;;10.77;;
10122;SDS011;5101;49.038;8.710;2023-12-14T05:52:09;15.70;;;11.32;;
10122;SDS011;5101;49.038;8.710;2023-12-14T05:54:36;17.63;;;11.85;;
10122;SDS011;5101;49.038;8.710;2023-12-14T05:57:02;17.65;;;11.45;;
10122;SDS011;5101;49.038;8.710;2023-12-14T05:59:28;16.70;;;11.75;;
10122;SDS011;5101;49.038;8.710;2023-12-14T06:02:00;12.85;;;10.30;;
10122;SDS011;5101;49.038;8.710;2023-12-14T06:04:26;14.70;;;11.02;;
10122;SDS011;5101;49.038;8.710;2023-12-14T06:06:52;17.10;;;11.40;;
10122;SDS011;5101;49.038;8.710;2023-12-14T06:09:18;14.15;;;11.43;;
10122;SDS011;5101;49.038;8.710;2023-12-14T06:11:50;15.57;;;11.48;;
10122;SDS011;5101;49.038;8.710;2023-12-14T06:14:16;16.58;;;12.65;;
10122;SDS011;5101;49.038;8.710;2023-12-14T06:16:42;16.83;;;12.00;;
10122;SDS011;5101;49.038;8.710;2023-12-14T06:19:07;16.73;;;12.07;;
10122;SDS011;5101;49.038;8.710;2023-12-14T06:21:33;15.20;;;12.15;;
10122;SDS011;5101;49.038;8.710;2023-12-14T06:23:58;18.15;;;12.15;;
10122;SDS011;5101;49.038;8.710;2023-12-14T06:26:24;20.13;;;13.48;;
10122;SDS011;5101;49.038;8.710;2023-12-14T06:28:50;17.02;;;12.80;;
10122;SDS011;5101;49.038;8.710;2023-12-14T06:31:17;23.60;;;13.32;;
10122;SDS011;5101;49.038;8.710;2023-12-14T06:33:43;20.95;;;14.25;;
10122;SDS011;5101;49.038;8.710;2023-12-14T06:36:08;19.35;;;13.85;;
10122;SDS011;5101;49.038;8.710;2023-12-14T06:38:34;21.70;;;14.27;;
10122;SDS011;5101;49.038;8.710;2023-12-14T06:41:02;20.42;;;14.18;;
10122;SDS011;5101;49.038;8.710;2023-12-14T06:43:28;20.95;;;13.65;;
10122;SDS011;5101;49.038;8.710;2023-12-14T06:45:53;18.83;;;13.35;;
10122;SDS011;5101;49.038;8.710;2023-12-14T06:48:19;21.30;;;13.80;;
10122;SDS011;5101;49.038;8.710;2023-12-14T06:50:45;21.35;;;14.77;;
10122;SDS011;5101;49.038;8.710;2023-12-14T06:53:11;20.55;;;13.90;;
10122;SDS011;5101;49.038;8.710;2023-12-14T06:55:36;20.08;;;13.60;;
10122;SDS011;5101;49.038;8.710;2023-12-14T06:58:02;21.23;;;13.88;;
10122;SDS011;5101;49.038;8.710;2023-12-14T07:00:27;21.35;;;13.95;;
10122;SDS011;5101;49.038;8.710;2023-12-14T07:02:54;19.08;;;13.60;;
10122;SDS011;5101;49.038;8.710;2023-12-14T07:05:20;20.83;;;13.82;;
10122;SDS011;5101;49.038;8.710;2023-12-14T07:07:45;22.73;;;13.70;;
10122;SDS011;5101;49.038;8.710;2023-12-14T07:10:11;21.58;;;14.20;;
10122;SDS011;5101;49.038;8.710;2023-12-14T07:12:36;24.70;;;14.35;;
10122;SDS011;5101;49.038;8.710;2023-12-14T07:15:02;21.02;;;13.27;;
10122;SDS011;5101;49.038;8.710;2023-12-14T07:17:27;23.00;;;14.55;;
10122;SDS011;5101;49.038;8.710;2023-12-14T07:19:53;19.48;;;14.10;;
10122;SDS011;5101;49.038;8.710;2023-12-14T07:22:18;17.85;;;13.00;;
10122;SDS011;5101;49.038;8.710;2023-12-14T07:24:44;22.70;;;14.00;;
10122;SDS011;5101;49.038;8.710;2023-12-14T07:27:09;20.73;;;14.60;;
10122;SDS011;5101;49.038;8.710;2023-12-14T07:29:35;18.50;;;14.18;;
10122;SDS011;5101;49.038;8.710;2023-12-14T07:32:00;22.50;;;13.50;;
10122;SDS011;5101;49.038;8.710;2023-12-14T07:34:26;19.05;;;13.95;;
10122;SDS011;5101;49.038;8.710;2023-12-14T07:36:53;18.40;;;13.40;;
10122;SDS011;5101;49.038;8.710;2023-12-14T07:39:19;20.67;;;13.80;;
10122;SDS011;5101;49.038;8.710;2023-12-14T07:41:44;20.45;;;14.18;;
10122;SDS011;5101;49.038;8.710;2023-12-14T07:44:10;21.45;;;13.45;;
10122;SDS011;5101;49.038;8.710;2023-12-14T07:46:35;23.27;;;14.27;;
10122;SDS011;5101;49.038;8.710;2023-12-14T07:49:04;22.67;;;14.02;;
10122;SDS011;5101;49.038;8.710;2023-12-14T07:51:30;20.48;;;14.70;;
10122;SDS011;5101;49.038;8.710;2023-12-14T07:53:55;22.88;;;15.43;;
10122;SDS011;5101;49.038;8.710;2023-12-14T07:56:21;21.25;;;15.20;;
10122;SDS011;5101;49.038;8.710;2023-12-14T07:58:50;24.00;;;14.68;;
10122;SDS011;5101;49.038;8.710;2023-12-14T08:01:15;24.08;;;15.30;;
10122;SDS011;5101;49.038;8.710;2023-12-14T08:03:41;21.63;;;14.65;;
10122;SDS011;5101;49.038;8.710;2023-12-14T08:06:07;19.02;;;13.65;;
10122;SDS011;5101;49.038;8.710;2023-12-14T08:08:32;17.95;;;13.85;;
10122;SDS011;5101;49.038;8.710;2023-12-14T08:10:58;18.10;;;13.30;;
10122;SDS011;5101;49.038;8.710;2023-12-14T08:13:23;17.85;;;13.52;;
10122;SDS011;5101;49.038;8.710;2023-12-14T08:15:49;16.92;;;13.27;;
10122;SDS011;5101;49.038;8.710;2023-12-14T08:18:14;17.90;;;13.02;;
10122;SDS011;5101;49.038;8.710;2023-12-14T08:20:40;17.08;;;13.70;;
10122;SDS011;5101;49.038;8.710;2023-12-14T08:23:05;17.70;;;14.10;;
10122;SDS011;5101;49.038;8.710;2023-12-14T08:25:31;18.13;;;13.63;;
10122;SDS011;5101;49.038;8.710;2023-12-14T08:27:56;18.33;;;13.30;;
10122;SDS011;5101;49.038;8.710;2023-12-14T08:30:22;18.35;;;13.48;;
10122;SDS011;5101;49.038;8.710;2023-12-14T08:32:48;19.88;;;13.48;;
10122;SDS011;5101;49.038;8.710;2023-12-14T08:35:14;21.15;;;13.35;;
10122;SDS011;5101;49.038;8.710;2023-12-14T08:37:40;19.38;;;12.63;;
10122;SDS011;5101;49.038;8.710;2023-12-14T08:40:05;17.00;;;12.35;;
10122;SDS011;5101;49.038;8.710;2023-12-14T08:42:32;17.63;;;12.82;;
10122;SDS011;5101;49.038;8.710;2023-12-14T08:44:57;16.33;;;12.57;;
10122;SDS011;5101;49.038;8.710;2023-12-14T08:47:23;15.13;;;12.93;;
10122;SDS011;5101;49.038;8.710;2023-12-14T08:49:48;18.95;;;13.15;;
10122;SDS011;5101;49.038;8.710;2023-12-14T08:52:14;17.42;;;13.15;;
10122;SDS011;5101;49.038;8.710;2023-12-14T08:54:39;16.70;;;12.77;;
10122;SDS011;5101;49.038;8.710;2023-12-14T08:57:07;15.70;;;12.57;;
10122;SDS011;5101;49.038;8.710;2023-12-14T08:59:33;15.88;;;12.52;;
10122;SDS011;5101;49.038;8.710;2023-12-14T09:01:58;14.95;;;12.07;;
10122;SDS011;5101;49.038;8.710;2023-12-14T09:04:24;18.80;;;12.55;;
10122;SDS011;5101;49.038;8.710;2023-12-14T09:06:49;15.63;;;12.20;;
10122;SDS011;5101;49.038;8.710;2023-12-14T09:09:16;16.27;;;12.70;;
10122;SDS011;5101;49.038;8.710;2023-12-14T09:11:43;16.48;;;12.85;;
10122;SDS011;5101;49.038;8.710;2023-12-14T09:14:09;14.80;;;12.10;;
10122;SDS011;5101;49.038;8.710;2023-12-14T09:16:35;18.13;;;13.02;;
10122;SDS011;5101;49.038;8.710;2023-12-14T09:19:00;21.88;;;12.90;;
10122;SDS011;5101;49.038;8.710;2023-12-14T09:21:25;15.35;;;12.45;;
10122;SDS011;5101;49.038;8.710;2023-12-14T09:23:51;16.48;;;11.93;;
10122;SDS011;5101;49.038;8.710;2023-12-14T09:26:18;16.83;;;11.90;;
10122;SDS011;5101;49.038;8.710;2023-12-14T09:28:44;18.05;;;12.35;;
10122;SDS011;5101;49.038;8.710;2023-12-14T09:31:09;13.43;;;11.88;;
10122;SDS011;5101;49.038;8.710;2023-12-14T09:33:35;17.25;;;12.00;;
10122;SDS011;5101;49.038;8.710;2023-12-14T09:36:01;13.45;;;10.77;;
10122;SDS011;5101;49.038;8.710;2023-12-14T09:38:26;12.15;;;10.38;;
10122;SDS011;5101;49.038;8.710;2023-12-14T09:40:52;13.05;;;11.32;;
10122;SDS011;5101;49.038;8.710;2023-12-14T09:43:17;16.45;;;11.45;;
10122;SDS011;5101;49.038;8.710;2023-12-14T09:45:43;14.02;;;11.75;;
10122;SDS011;5101;49.038;8.710;2023-12-14T09:48:10;11.98;;;10.38;;
10122;SDS011;5101;49.038;8.710;2023-12-14T09:50:37;12.98;;;10.35;;
10122;SDS011;5101;49.038;8.710;2023-12-14T09:53:05;12.05;;;10.38;;
10122;SDS011;5101;49.038;8.710;2023-12-14T09:55:30;14.38;;;9.93;;
10122;SDS011;5101;49.038;8.710;2023-12-14T09:57:56;12.20;;;10.73;;
10122;SDS011;5101;49.038;8.710;2023-12-14T10:00:32;14.10;;;11.57;;
10122;SDS011;5101;49.038;8.710;2023-12-14T10:05:48;13.88;;;11.43;;
10122;SDS011;5101;49.038;8.710;2023-12-14T10:08:15;12.60;;;10.50;;
10122;SDS011;5101;49.038;8.710;2023-12-14T10:10:41;15.65;;;10.90;;
10122;SDS011;5101;49.038;8.710;2023-12-14T10:13:08;12.70;;;11.40;;
10122;SDS011;5101;49.038;8.710;2023-12-14T10:15:40;13.35;;;10.55;;
10122;SDS011;5101;49.038;8.710;2023-12-14T10:18:06;13.02;;;10.48;;
10122;SDS011;5101;49.038;8.710;2023-12-14T10:20:32;12.25;;;10.25;;
10122;SDS011;5101;49.038;8.710;2023-12-14T10:22:57;13.45;;;10.77;;
10122;SDS011;5101;49.038;8.710;2023-12-14T10:25:23;13.57;;;10.70;;
10122;SDS011;5101;49.038;8.710;2023-12-14T10:27:51;13.25;;;10.30;;
10122;SDS011;5101;49.038;8.710;2023-12-14T10:30:20;10.77;;;9.68;;
10122;SDS011;5101;49.038;8.710;2023-12-14T10:32:47;13.00;;;10.05;;
10122;SDS011;5101;49.038;8.710;2023-12-14T10:35:13;11.90;;;9.90;;
10122;SDS011;5101;49.038;8.710;2023-12-14T10:37:44;13.05;;;10.38;;
10122;SDS011;5101;49.038;8.710;2023-12-14T10:40:11;12.50;;;10.48;;
10122;SDS011;5101;49.038;8.710;2023-12-14T10:42:39;14.20;;;9.70;;
10122;SDS011;5101;49.038;8.710;2023-12-14T10:45:08;12.95;;;8.98;;
10122;SDS011;5101;49.038;8.710;2023-12-14T10:47:37;11.40;;;9.52;;
10122;SDS011;5101;49.038;8.710;2023-12-14T10:50:05;11.95;;;9.63;;
10122;SDS011;5101;49.038;8.710;2023-12-14T10:52:31;13.52;;;9.48;;
10122;SDS011;5101;49.038;8.710;2023-12-14T10:55:01;11.75;;;8.20;;
10122;SDS011;5101;49.038;8.710;2023-12-14T10:57:31;9.57;;;7.90;;
10122;SDS011;5101;49.038;8.710;2023-12-14T10:59:57;11.00;;;8.38;;
10122;SDS011;5101;49.038;8.710;2023-12-14T11:02:27;8.95;;;7.38;;
10122;SDS011;5101;49.038;8.710;2023-12-14T11:04:57;9.38;;;7.45;;
10122;SDS011;5101;49.038;8.710;2023-12-14T11:10:10;6.20;;;5.00;;
10122;SDS011;5101;49.038;8.710;2023-12-14T11:12:36;6.07;;;4.82;;
10122;SDS011;5101;49.038;8.710;2023-12-14T11:15:02;5.93;;;4.40;;
10122;SDS011;5101;49.038;8.710;2023-12-14T11:17:30;4.93;;;3.78;;
10122;SDS011;5101;49.038;8.710;2023-12-14T11:19:56;4.28;;;3.33;;
10122;SDS011;5101;49.038;8.710;2023-12-14T11:22:26;5.32;;;3.80;;
10122;SDS011;5101;49.038;8.710;2023-12-14T11:24:53;3.10;;;2.80;;
10122;SDS011;5101;49.038;8.710;2023-12-14T11:27:29;3.80;;;3.22;;
10122;SDS011;5101;49.038;8.710;2023-12-14T11:29:55;4.38;;;3.50;;
10122;SDS011;5101;49.038;8.710;2023-12-14T11:32:21;4.78;;;4.28;;
10122;SDS011;5101;49.038;8.710;2023-12-14T11:34:47;5.93;;;4.35;;
10122;SDS011;5101;49.038;8.710;2023-12-14T11:37:13;6.40;;;4.80;;
10122;SDS011;5101;49.038;8.710;2023-12-14T11:39:38;6.57;;;5.38;;
10122;SDS011;5101;49.038;8.710;2023-12-14T11:42:05;6.32;;;5.47;;
10122;SDS011;5101;49.038;8.710;2023-12-14T11:44:35;7.53;;;6.53;;
10122;SDS011;5101;49.038;8.710;2023-12-14T11:47:05;8.48;;;7.40;;
10122;SDS011;5101;49.038;8.710;2023-12-14T11:49:31;8.65;;;7.43;;
10122;SDS011;5101;49.038;8.710;2023-12-14T11:51:57;8.38;;;6.15;;
10122;SDS011;5101;49.038;8.710;2023-12-14T11:54:23;9.30;;;7.57;;
10122;SDS011;5101;49.038;8.710;2023-12-14T11:56:49;10.65;;;8.40;;
10122;SDS011;5101;49.038;8.710;2023-12-14T11:59:15;9.55;;;7.60;;
10122;SDS011;5101;49.038;8.710;2023-12-14T12:01:53;10.38;;;6.80;;
10122;SDS011;5101;49.038;8.710;2023-12-14T12:04:20;8.85;;;6.88;;
10122;SDS011;5101;49.038;8.710;2023-12-14T12:06:45;8.85;;;7.20;;
10122;SDS011;5101;49.038;8.710;2023-12-14T12:09:12;7.93;;;7.10;;
10122;SDS011;5101;49.038;8.710;2023-12-14T12:11:38;8.35;;;7.55;;
10122;SDS011;5101;49.038;8.710;2023-12-14T12:14:04;10.63;;;7.95;;
10122;SDS011;5101;49.038;8.710;2023-12-14T12:16:30;12.18;;;7.63;;
10122;SDS011;5101;49.038;8.710;2023-12-14T12:18:56;11.85;;;8.18;;
10122;SDS011;5101;49.038;8.710;2023-12-14T12:21:21;8.90;;;7.68;;
10122;SDS011;5101;49.038;8.710;2023-12-14T12:23:47;9.05;;;6.95;;
10122;SDS011;5101;49.038;8.710;2023-12-14T12:26:12;8.73;;;7.05;;
10122;SDS011;5101;49.038;8.710;2023-12-14T12:28:38;8.65;;;7.35;;
10122;SDS011;5101;49.038;8.710;2023-12-14T12:31:03;8.45;;;7.57;;
10122;SDS011;5101;49.038;8.710;2023-12-14T12:33:29;9.18;;;7.68;;
10122;SDS011;5101;49.038;8.710;2023-12-14T12:35:55;10.27;;;7.65;;
10122;SDS011;5101;49.038;8.710;2023-12-14T12:38:20;10.73;;;8.15;;
10122;SDS011;5101;49.038;8.710;2023-12-14T12:40:46;10.25;;;8.52;;
10122;SDS011;5101;49.038;8.710;2023-12-14T12:43:12;8.85;;;8.02;;
10122;SDS011;5101;49.038;8.710;2023-12-14T12:45:39;10.55;;;8.43;;
10122;SDS011;5101;49.038;8.710;2023-12-14T12:48:04;8.95;;;7.60;;
10122;SDS011;5101;49.038;8.710;2023-12-14T12:50:31;9.60;;;8.27;;
10122;SDS011;5101;49.038;8.710;2023-12-14T12:52:57;8.93;;;7.72;;
10122;SDS011;5101;49.038;8.710;2023-12-14T12:55:23;8.88;;;7.97;;
10122;SDS011;5101;49.038;8.710;2023-12-14T12:57:48;11.98;;;8.63;;
10122;SDS011;5101;49.038;8.710;2023-12-14T13:00:14;10.18;;;8.60;;
10122;SDS011;5101;49.038;8.710;2023-12-14T13:02:40;9.43;;;8.30;;
10122;SDS011;5101;49.038;8.710;2023-12-14T13:05:07;11.85;;;8.77;;
10122;SDS011;5101;49.038;8.710;2023-12-14T13:07:33;10.65;;;9.43;;
10122;SDS011;5101;49.038;8.710;2023-12-14T13:09:59;10.23;;;8.98;;
10122;SDS011;5101;49.038;8.710;2023-12-14T13:12:25;11.30;;;9.15;;
10122;SDS011;5101;49.038;8.710;2023-12-14T13:14:51;9.65;;;8.68;;
10122;SDS011;5101;49.038;8.710;2023-12-14T13:17:17;10.65;;;8.15;;
10122;SDS011;5101;49.038;8.710;2023-12-14T13:19:43;9.00;;;7.50;;
10122;SDS011;5101;49.038;8.710;2023-12-14T13:22:09;8.82;;;7.93;;
10122;SDS011;5101;49.038;8.710;2023-12-14T13:24:36;10.50;;;8.38;;
10122;SDS011;5101;49.038;8.710;2023-12-14T13:27:02;8.68;;;7.18;;
10122;SDS011;5101;49.038;8.710;2023-12-14T13:29:28;10.02;;;7.68;;
10122;SDS011;5101;49.038;8.710;2023-12-14T13:31:56;10.40;;;7.65;;
10122;SDS011;5101;49.038;8.710;2023-12-14T13:34:21;8.52;;;7.20;;
10122;SDS011;5101;49.038;8.710;2023-12-14T13:36:47;11.60;;;7.20;;
10122;SDS011;5101;49.038;8.710;2023-12-14T13:39:12;11.27;;;7.80;;
10122;SDS011;5101;49.038;8.710;2023-12-14T13:41:38;9.65;;;7.13;;
10122;SDS011;5101;49.038;8.710;2023-12-14T13:44:03;8.00;;;6.85;;
10122;SDS011;5101;49.038;8.710;2023-12-14T13:46:29;11.77;;;7.20;;
10122;SDS011;5101;49.038;8.710;2023-12-14T13:48:55;7.40;;;6.40;;
10122;SDS011;5101;49.038;8.710;2023-12-14T13:51:20;7.63;;;6.82;;
10122;SDS011;5101;49.038;8.710;2023-12-14T13:53:46;9.10;;;6.97;;
10122;SDS011;5101;49.038;8.710;2023-12-14T13:56:11;7.80;;;7.00;;
10122;SDS011;5101;49.038;8.710;2023-12-14T13:58:37;8.27;;;6.55;;
10122;SDS011;5101;49.038;8.710;2023-12-14T14:01:04;8.18;;;6.95;;
10122;SDS011;5101;49.038;8.710;2023-12-14T14:03:36;7.65;;;6.57;;
10122;SDS011;5101;49.038;8.710;2023-12-14T14:06:05;8.23;;;6.72;;
10122;SDS011;5101;49.038;8.710;2023-12-14T14:08:31;9.00;;;6.93;;
10122;SDS011;5101;49.038;8.710;2023-12-14T14:10:57;8.73;;;7.63;;
10122;SDS011;5101;49.038;8.710;2023-12-14T14:13:23;8.13;;;7.28;;
10122;SDS011;5101;49.038;8.710;2023-12-14T14:15:49;6.90;;;6.20;;
10122;SDS011;5101;49.038;8.710;2023-12-14T14:18:14;8.30;;;7.00;;
10122;SDS011;5101;49.038;8.710;2023-12-14T14:20:40;9.32;;;6.22;;
10122;SDS011;5101;49.038;8.710;2023-12-14T14:23:05;9.13;;;6.70;;
10122;SDS011;5101;49.038;8.710;2023-12-14T14:25:37;8.80;;;7.07;;
10122;SDS011;5101;49.038;8.710;2023-12-14T14:28:02;7.95;;;7.15;;
10122;SDS011;5101;49.038;8.710;2023-12-14T14:30:28;10.35;;;7.32;;
10122;SDS011;5101;49.038;8.710;2023-12-14T14:32:54;9.73;;;7.05;;
10122;SDS011;5101;49.038;8.710;2023-12-14T14:35:19;8.23;;;6.60;;
10122;SDS011;5101;49.038;8.710;2023-12-14T14:37:45;9.00;;;7.03;;
10122;SDS011;5101;49.038;8.710;2023-12-14T14:40:11;8.48;;;6.90;;
10122;SDS011;5101;49.038;8.710;2023-12-14T14:42:38;11.32;;;7.50;;
10122;SDS011;5101;49.038;8.710;2023-12-14T14:45:05;8.38;;;7.00;;
10122;SDS011;5101;49.038;8.710;2023-12-14T14:47:31;12.38;;;8.02;;
10122;SDS011;5101;49.038;8.710;2023-12-14T14:49:57;10.82;;;8.07;;
10122;SDS011;5101;49.038;8.710;2023-12-14T14:52:28;12.20;;;8.95;;